createdAt,value
2018-03-22T00:00:02.345Z,1016.64
2018-03-22T00:01:02.304Z,1016.65
2018-03-22T00:02:02.275Z,1016.64
2018-03-22T00:03:02.247Z,1016.56
2018-03-22T00:04:02.232Z,1016.58
2018-03-22T00:05:02.196Z,1016.56
2018-03-22T00:06:02.170Z,1016.68
2018-03-22T00:07:02.145Z,1016.65
2018-03-22T00:08:02.115Z,1016.63
2018-03-22T00:09:02.090Z,1016.63
2018-03-22T00:10:02.063Z,1016.59
2018-03-22T00:11:02.048Z,1016.59
2018-03-22T00:12:02.022Z,1016.62
2018-03-22T00:13:01.981Z,1016.59
2018-03-22T00:14:01.962Z,1016.59
2018-03-22T00:15:01.926Z,1016.59
2018-03-22T00:16:01.912Z,1016.61
2018-03-22T00:17:01.887Z,1016.52
2018-03-22T00:18:01.844Z,1016.49
2018-03-22T00:19:01.818Z,1016.42
2018-03-22T00:20:01.792Z,1016.46
2018-03-22T00:21:01.776Z,1016.56
2018-03-22T00:22:01.738Z,1016.41
2018-03-22T00:23:01.725Z,1016.40
2018-03-22T00:24:01.694Z,1016.37
2018-03-22T00:25:01.668Z,1016.38
2018-03-22T00:26:01.628Z,1016.32
2018-03-22T00:27:01.662Z,1016.29
2018-03-22T00:28:01.576Z,1016.32
2018-03-22T00:29:01.550Z,1016.28
2018-03-22T00:30:01.535Z,1016.28
2018-03-22T00:31:01.494Z,1016.27
2018-03-22T00:32:01.469Z,1016.29
2018-03-22T00:33:01.466Z,1016.24
2018-03-22T00:34:01.425Z,1016.20
2018-03-22T00:35:01.431Z,1016.21
2018-03-22T00:36:01.393Z,1016.10
2018-03-22T00:37:01.341Z,1016.12
2018-03-22T00:38:01.314Z,1016.07
2018-03-22T00:39:01.276Z,1016.13
2018-03-22T00:40:01.255Z,1016.07
2018-03-22T00:41:01.230Z,1016.02
2018-03-22T00:42:01.195Z,1016.00
2018-03-22T00:43:01.182Z,1016.02
2018-03-22T00:44:01.161Z,1016.02
2018-03-22T00:45:01.118Z,1016.06
2018-03-22T00:46:01.088Z,1015.98
2018-03-22T00:47:01.062Z,1015.94
2018-03-22T00:48:01.035Z,1015.98
2018-03-22T00:49:01.028Z,1016.00
2018-03-22T00:50:00.992Z,1015.98
2018-03-22T00:51:00.953Z,1015.89
2018-03-22T00:52:00.925Z,1015.84
2018-03-22T00:53:00.911Z,1015.85
2018-03-22T00:54:00.875Z,1015.79
2018-03-22T00:55:00.849Z,1015.79
2018-03-22T00:56:00.819Z,1015.78
2018-03-22T00:57:00.793Z,1015.73
2018-03-22T00:58:00.767Z,1015.76
2018-03-22T00:59:00.739Z,1015.70
2018-03-22T01:00:00.712Z,1015.74
2018-03-22T01:01:00.702Z,1015.72
2018-03-22T01:02:00.668Z,1015.73
2018-03-22T01:03:00.630Z,1015.72
2018-03-22T01:04:00.611Z,1015.64
2018-03-22T01:05:00.578Z,1015.61
2018-03-22T01:06:00.561Z,1015.62
2018-03-22T01:07:00.523Z,1015.58
2018-03-22T01:08:00.508Z,1015.57
2018-03-22T01:09:00.470Z,1015.55
2018-03-22T01:10:00.455Z,1015.48
2018-03-22T01:11:00.427Z,1015.43
2018-03-22T01:12:00.400Z,1015.41
2018-03-22T01:13:00.373Z,1015.43
2018-03-22T01:14:00.335Z,1015.37
2018-03-22T01:15:00.309Z,1015.36
2018-03-22T01:16:00.292Z,1015.33
2018-03-22T01:17:00.256Z,1015.27
2018-03-22T01:18:00.228Z,1015.29
2018-03-22T01:19:00.202Z,1015.17
2018-03-22T01:20:00.171Z,1015.20
2018-03-22T01:21:00.163Z,1015.17
2018-03-22T01:22:00.121Z,1015.11
2018-03-22T01:23:00.114Z,1015.08
2018-03-22T01:24:00.065Z,1015.07
2018-03-22T01:25:00.052Z,1015.07
2018-03-22T01:26:00.010Z,1015.03
2018-03-22T01:26:59.988Z,1015.04
2018-03-22T01:27:59.961Z,1014.89
2018-03-22T01:28:59.949Z,1015.05
2018-03-22T01:29:59.916Z,1014.97
2018-03-22T01:30:59.881Z,1014.87
2018-03-22T01:31:59.853Z,1014.86
2018-03-22T01:32:59.825Z,1014.83
2018-03-22T01:33:59.797Z,1014.85
2018-03-22T01:34:59.769Z,1014.82
2018-03-22T01:35:59.797Z,1014.75
2018-03-22T01:36:59.716Z,1014.79
2018-03-22T01:37:59.686Z,1014.79
2018-03-22T01:38:59.659Z,1014.74
2018-03-22T01:39:59.646Z,1014.77
2018-03-22T01:40:59.609Z,1014.79
2018-03-22T01:41:59.578Z,1014.70
2018-03-22T01:42:59.564Z,1014.58
2018-03-22T01:43:59.526Z,1014.59
2018-03-22T01:44:59.500Z,1014.59
2018-03-22T01:45:59.473Z,1014.53
2018-03-22T01:46:59.446Z,1014.49
2018-03-22T01:47:59.417Z,1014.53
2018-03-22T01:48:59.396Z,1014.48
2018-03-22T01:49:59.362Z,1014.53
2018-03-22T01:50:59.348Z,1014.50
2018-03-22T01:51:59.308Z,1014.43
2018-03-22T01:52:59.294Z,1014.46
2018-03-22T01:53:59.256Z,1014.45
2018-03-22T01:54:59.256Z,1014.41
2018-03-22T01:55:59.205Z,1014.41
2018-03-22T01:56:59.189Z,1014.43
2018-03-22T01:57:59.159Z,1014.30
2018-03-22T01:58:59.125Z,1014.33
2018-03-22T01:59:59.106Z,1014.26
2018-03-22T02:00:59.083Z,1014.30
2018-03-22T02:01:59.043Z,1014.26
2018-03-22T02:02:59.025Z,1014.26
2018-03-22T02:03:58.989Z,1014.31
2018-03-22T02:04:58.999Z,1014.33
2018-03-22T02:05:58.925Z,1014.43
2018-03-22T02:06:58.901Z,1014.37
2018-03-22T02:07:58.877Z,1014.38
2018-03-22T02:08:58.847Z,1014.38
2018-03-22T02:09:58.814Z,1014.39
2018-03-22T02:10:58.792Z,1014.30
2018-03-22T02:11:58.764Z,1014.31
2018-03-22T02:12:58.736Z,1014.24
2018-03-22T02:13:58.712Z,1014.21
2018-03-22T02:14:58.683Z,1014.16
2018-03-22T02:15:58.656Z,1014.18
2018-03-22T02:16:58.632Z,1014.16
2018-03-22T02:17:58.602Z,1014.10
2018-03-22T02:18:58.577Z,1014.10
2018-03-22T02:19:58.552Z,1014.06
2018-03-22T02:20:58.525Z,1014.03
2018-03-22T02:21:58.497Z,1014.06
2018-03-22T02:22:58.478Z,1014.01
2018-03-22T02:23:58.446Z,1014.02
2018-03-22T02:24:58.414Z,1014.05
2018-03-22T02:25:58.396Z,1014.03
2018-03-22T02:26:58.363Z,1013.97
2018-03-22T02:27:58.337Z,1013.92
2018-03-22T02:28:58.313Z,1013.94
2018-03-22T02:29:58.284Z,1013.89
2018-03-22T02:30:58.250Z,1013.89
2018-03-22T02:31:58.235Z,1013.87
2018-03-22T02:32:58.203Z,1013.79
2018-03-22T02:33:58.176Z,1013.95
2018-03-22T02:34:58.150Z,1013.72
2018-03-22T02:35:58.124Z,1013.84
2018-03-22T02:36:58.097Z,1013.70
2018-03-22T02:37:58.071Z,1013.83
2018-03-22T02:38:58.044Z,1013.76
2018-03-22T02:39:58.024Z,1013.73
2018-03-22T02:40:57.990Z,1013.70
2018-03-22T02:41:57.972Z,1013.59
2018-03-22T02:42:57.935Z,1013.60
2018-03-22T02:43:57.910Z,1013.63
2018-03-22T02:44:57.883Z,1013.53
2018-03-22T02:45:57.852Z,1013.50
2018-03-22T02:46:57.827Z,1013.46
2018-03-22T02:47:57.799Z,1013.46
2018-03-22T02:48:57.772Z,1013.47
2018-03-22T02:49:57.748Z,1013.52
2018-03-22T02:50:57.722Z,1013.48
2018-03-22T02:51:57.698Z,1013.41
2018-03-22T02:52:57.673Z,1013.44
2018-03-22T02:53:57.638Z,1013.33
2018-03-22T02:54:57.613Z,1013.27
2018-03-22T02:55:57.604Z,1013.29
2018-03-22T02:56:57.562Z,1013.20
2018-03-22T02:57:57.537Z,1013.15
2018-03-22T02:58:57.509Z,1013.17
2018-03-22T02:59:57.485Z,1013.22
2018-03-22T03:00:57.451Z,1013.09
2018-03-22T03:01:57.440Z,1013.10
2018-03-22T03:02:57.403Z,1013.05
2018-03-22T03:03:57.368Z,1013.07
2018-03-22T03:04:57.354Z,1013.16
2018-03-22T03:05:57.324Z,1013.04
2018-03-22T03:06:57.288Z,1013.00
2018-03-22T03:07:57.265Z,1012.91
2018-03-22T03:08:57.252Z,1013.08
2018-03-22T03:09:57.207Z,1012.89
2018-03-22T03:10:57.186Z,1012.88
2018-03-22T03:11:57.164Z,1012.85
2018-03-22T03:12:57.133Z,1012.82
2018-03-22T03:13:57.099Z,1012.87
2018-03-22T03:14:57.082Z,1012.81
2018-03-22T03:15:57.052Z,1012.69
2018-03-22T03:16:57.025Z,1012.71
2018-03-22T03:17:56.999Z,1012.72
2018-03-22T03:18:56.968Z,1012.65
2018-03-22T03:19:56.944Z,1012.70
2018-03-22T03:20:56.925Z,1012.73
2018-03-22T03:21:56.888Z,1012.65
2018-03-22T03:22:56.864Z,1012.59
2018-03-22T03:23:56.836Z,1012.62
2018-03-22T03:24:56.815Z,1012.57
2018-03-22T03:25:56.788Z,1012.64
2018-03-22T03:26:56.757Z,1012.59
2018-03-22T03:27:56.728Z,1012.58
2018-03-22T03:28:56.705Z,1012.51
2018-03-22T03:29:56.679Z,1012.53
2018-03-22T03:30:56.651Z,1012.52
2018-03-22T03:31:56.622Z,1012.49
2018-03-22T03:32:56.595Z,1012.56
2018-03-22T03:33:56.567Z,1012.47
2018-03-22T03:34:56.541Z,1012.52
2018-03-22T03:35:56.519Z,1012.47
2018-03-22T03:36:56.487Z,1012.44
2018-03-22T03:37:56.459Z,1012.48
2018-03-22T03:38:56.438Z,1012.50
2018-03-22T03:39:56.407Z,1012.45
2018-03-22T03:40:56.380Z,1012.44
2018-03-22T03:41:56.356Z,1012.37
2018-03-22T03:42:56.324Z,1012.39
2018-03-22T03:43:56.297Z,1012.36
2018-03-22T03:44:56.275Z,1012.35
2018-03-22T03:45:56.246Z,1012.43
2018-03-22T03:46:56.217Z,1012.32
2018-03-22T03:47:56.189Z,1012.35
2018-03-22T03:48:56.163Z,1012.35
2018-03-22T03:49:56.135Z,1012.42
2018-03-22T03:50:56.112Z,1012.31
2018-03-22T03:51:56.082Z,1012.44
2018-03-22T03:52:56.057Z,1012.38
2018-03-22T03:53:56.033Z,1012.33
2018-03-22T03:54:56.001Z,1012.34
2018-03-22T03:55:55.980Z,1012.26
2018-03-22T03:56:55.948Z,1012.28
2018-03-22T03:57:55.919Z,1012.28
2018-03-22T03:58:55.891Z,1012.24
2018-03-22T03:59:55.866Z,1012.17
2018-03-22T04:00:55.837Z,1012.14
2018-03-22T04:01:55.810Z,1012.14
2018-03-22T04:02:55.785Z,1012.14
2018-03-22T04:03:55.754Z,1012.17
2018-03-22T04:04:55.726Z,1012.05
2018-03-22T04:05:55.702Z,1012.04
2018-03-22T04:06:55.677Z,1012.05
2018-03-22T04:07:55.648Z,1012.15
2018-03-22T04:08:55.619Z,1012.10
2018-03-22T04:09:55.591Z,1011.95
2018-03-22T04:10:55.557Z,1011.89
2018-03-22T04:11:55.540Z,1011.87
2018-03-22T04:12:55.510Z,1011.87
2018-03-22T04:13:55.480Z,1011.81
2018-03-22T04:14:55.456Z,1011.78
2018-03-22T04:15:55.428Z,1011.75
2018-03-22T04:16:55.409Z,1011.80
2018-03-22T04:17:55.369Z,1011.77
2018-03-22T04:18:55.348Z,1011.78
2018-03-22T04:19:55.309Z,1011.76
2018-03-22T04:20:55.292Z,1011.68
2018-03-22T04:21:55.259Z,1011.70
2018-03-22T04:22:55.236Z,1011.70
2018-03-22T04:23:55.205Z,1011.62
2018-03-22T04:24:55.180Z,1011.67
2018-03-22T04:25:55.146Z,1011.66
2018-03-22T04:26:55.121Z,1011.73
2018-03-22T04:27:55.095Z,1011.65
2018-03-22T04:28:55.065Z,1011.70
2018-03-22T04:29:55.039Z,1011.73
2018-03-22T04:30:55.013Z,1011.69
2018-03-22T04:31:54.981Z,1011.68
2018-03-22T04:32:54.958Z,1011.69
2018-03-22T04:33:54.935Z,1011.74
2018-03-22T04:34:54.902Z,1011.71
2018-03-22T04:35:54.880Z,1011.62
2018-03-22T04:36:54.849Z,1011.63
2018-03-22T04:37:54.822Z,1011.58
2018-03-22T04:38:54.793Z,1011.59
2018-03-22T04:39:54.768Z,1011.56
2018-03-22T04:40:54.739Z,1011.59
2018-03-22T04:41:54.710Z,1011.47
2018-03-22T04:42:54.706Z,1011.44
2018-03-22T04:43:54.656Z,1011.54
2018-03-22T04:44:54.629Z,1011.48
2018-03-22T04:45:54.604Z,1011.48
2018-03-22T04:46:54.581Z,1011.45
2018-03-22T04:47:54.551Z,1011.40
2018-03-22T04:48:54.524Z,1011.34
2018-03-22T04:49:54.486Z,1011.32
2018-03-22T04:50:54.470Z,1011.29
2018-03-22T04:51:54.436Z,1011.27
2018-03-22T04:52:54.421Z,1011.26
2018-03-22T04:53:54.382Z,1011.21
2018-03-22T04:54:54.362Z,1011.23
2018-03-22T04:55:54.329Z,1011.26
2018-03-22T04:56:54.299Z,1011.25
2018-03-22T04:57:54.270Z,1011.16
2018-03-22T04:58:54.247Z,1011.18
2018-03-22T04:59:54.218Z,1011.11
2018-03-22T05:00:54.195Z,1011.21
2018-03-22T05:01:54.159Z,1011.10
2018-03-22T05:02:54.135Z,1011.11
2018-03-22T05:03:54.109Z,1011.10
2018-03-22T05:04:54.081Z,1011.09
2018-03-22T05:05:54.055Z,1011.13
2018-03-22T05:06:54.043Z,1011.00
2018-03-22T05:07:53.999Z,1011.00
2018-03-22T05:08:53.971Z,1011.00
2018-03-22T05:09:53.941Z,1010.97
2018-03-22T05:10:53.916Z,1011.04
2018-03-22T05:11:53.888Z,1010.98
2018-03-22T05:12:53.869Z,1011.02
2018-03-22T05:13:53.833Z,1010.99
2018-03-22T05:14:53.808Z,1010.96
2018-03-22T05:15:53.780Z,1010.96
2018-03-22T05:16:53.752Z,1010.95
2018-03-22T05:17:53.724Z,1010.88
2018-03-22T05:18:53.700Z,1010.92
2018-03-22T05:19:53.669Z,1010.93
2018-03-22T05:20:53.646Z,1010.92
2018-03-22T05:21:53.611Z,1010.90
2018-03-22T05:22:53.652Z,1010.93
2018-03-22T05:23:53.558Z,1010.94
2018-03-22T05:24:53.530Z,1010.86
2018-03-22T05:25:53.502Z,1010.94
2018-03-22T05:26:53.476Z,1010.87
2018-03-22T05:27:53.448Z,1010.86
2018-03-22T05:28:53.419Z,1010.77
2018-03-22T05:29:53.446Z,1010.80
2018-03-22T05:30:53.367Z,1010.76
2018-03-22T05:31:53.334Z,1010.79
2018-03-22T05:32:53.321Z,1010.71
2018-03-22T05:33:53.284Z,1010.63
2018-03-22T05:34:53.252Z,1010.63
2018-03-22T05:35:53.225Z,1010.62
2018-03-22T05:36:53.197Z,1010.55
2018-03-22T05:37:53.169Z,1010.59
2018-03-22T05:38:53.143Z,1010.52
2018-03-22T05:39:53.156Z,1010.55
2018-03-22T05:40:53.087Z,1010.53
2018-03-22T05:41:53.062Z,1010.49
2018-03-22T05:42:53.033Z,1010.54
2018-03-22T05:43:53.010Z,1010.52
2018-03-22T05:44:52.980Z,1010.59
2018-03-22T05:45:52.946Z,1010.53
2018-03-22T05:46:52.923Z,1010.45
2018-03-22T05:47:52.897Z,1010.48
2018-03-22T05:48:52.859Z,1010.53
2018-03-22T05:49:52.837Z,1010.47
2018-03-22T05:50:52.814Z,1010.50
2018-03-22T05:51:52.781Z,1010.48
2018-03-22T05:52:52.757Z,1010.40
2018-03-22T05:53:52.728Z,1010.39
2018-03-22T05:54:52.699Z,1010.49
2018-03-22T05:55:52.670Z,1010.47
2018-03-22T05:56:52.649Z,1010.46
2018-03-22T05:57:52.611Z,1010.57
2018-03-22T05:58:52.588Z,1010.47
2018-03-22T05:59:52.560Z,1010.48
2018-03-22T06:00:52.529Z,1010.41
2018-03-22T06:01:52.507Z,1010.40
2018-03-22T06:02:52.478Z,1010.27
2018-03-22T06:03:52.448Z,1010.27
2018-03-22T06:04:52.422Z,1010.37
2018-03-22T06:05:52.391Z,1010.33
2018-03-22T06:06:52.361Z,1010.22
2018-03-22T06:07:52.341Z,1010.16
2018-03-22T06:08:52.350Z,1010.20
2018-03-22T06:09:52.280Z,1010.20
2018-03-22T06:10:52.259Z,1010.12
2018-03-22T06:11:52.228Z,1010.14
2018-03-22T06:12:52.204Z,1010.09
2018-03-22T06:13:52.169Z,1010.13
2018-03-22T06:14:52.146Z,1010.13
2018-03-22T06:15:52.113Z,1010.14
2018-03-22T06:16:52.088Z,1010.13
2018-03-22T06:17:52.059Z,1010.20
2018-03-22T06:18:52.031Z,1010.11
2018-03-22T06:19:52.003Z,1010.21
2018-03-22T06:20:51.977Z,1010.07
2018-03-22T06:21:51.951Z,1010.15
2018-03-22T06:22:51.922Z,1010.15
2018-03-22T06:23:51.896Z,1010.10
2018-03-22T06:24:51.865Z,1009.98
2018-03-22T06:25:51.837Z,1010.00
2018-03-22T06:26:51.808Z,1010.03
2018-03-22T06:27:51.786Z,1010.00
2018-03-22T06:28:51.753Z,1010.03
2018-03-22T06:29:51.726Z,1010.02
2018-03-22T06:30:51.695Z,1010.01
2018-03-22T06:31:51.672Z,1009.94
2018-03-22T06:32:51.663Z,1010.00
2018-03-22T06:33:51.622Z,1009.98
2018-03-22T06:34:51.588Z,1009.97
2018-03-22T06:35:51.562Z,1010.00
2018-03-22T06:36:51.532Z,1009.96
2018-03-22T06:37:51.510Z,1009.95
2018-03-22T06:38:51.479Z,1009.91
2018-03-22T06:39:51.449Z,1010.01
2018-03-22T06:40:51.428Z,1009.91
2018-03-22T06:41:51.395Z,1009.93
2018-03-22T06:42:51.371Z,1009.94
2018-03-22T06:43:51.341Z,1009.90
2018-03-22T06:44:51.314Z,1009.98
2018-03-22T06:45:51.285Z,1009.98
2018-03-22T06:46:51.258Z,1009.95
2018-03-22T06:47:51.231Z,1009.93
2018-03-22T06:48:51.208Z,1009.91
2018-03-22T06:49:51.181Z,1009.89
2018-03-22T06:50:51.148Z,1009.94
2018-03-22T06:51:51.152Z,1009.92
2018-03-22T06:52:51.089Z,1009.87
2018-03-22T06:53:51.067Z,1009.98
2018-03-22T06:54:51.034Z,1009.82
2018-03-22T06:55:51.010Z,1009.96
2018-03-22T06:56:50.990Z,1009.81
2018-03-22T06:57:50.950Z,1009.77
2018-03-22T06:58:50.923Z,1009.79
2018-03-22T06:59:50.904Z,1009.75
2018-03-22T07:00:50.872Z,1009.84
2018-03-22T07:01:50.843Z,1009.89
2018-03-22T07:02:50.821Z,1009.87
2018-03-22T07:03:50.786Z,1009.80
2018-03-22T07:04:50.760Z,1010.09
2018-03-22T07:05:50.736Z,1009.84
2018-03-22T07:06:50.700Z,1009.78
2018-03-22T07:07:50.682Z,1009.78
2018-03-22T07:08:50.652Z,1009.78
2018-03-22T07:09:50.619Z,1009.78
2018-03-22T07:10:50.596Z,1009.75
2018-03-22T07:11:50.570Z,1009.75
2018-03-22T07:12:50.542Z,1009.65
2018-03-22T07:13:50.514Z,1009.67
2018-03-22T07:14:50.498Z,1009.58
2018-03-22T07:15:50.461Z,1009.60
2018-03-22T07:16:50.432Z,1009.54
2018-03-22T07:17:50.406Z,1009.58
2018-03-22T07:18:50.378Z,1009.56
2018-03-22T07:19:50.375Z,1009.57
2018-03-22T07:20:50.322Z,1009.50
2018-03-22T07:21:50.294Z,1009.47
2018-03-22T07:22:50.266Z,1009.57
2018-03-22T07:23:50.240Z,1009.61
2018-03-22T07:24:50.219Z,1009.50
2018-03-22T07:25:50.184Z,1009.58
2018-03-22T07:26:50.158Z,1009.62
2018-03-22T07:27:50.130Z,1009.54
2018-03-22T07:28:50.102Z,1009.58
2018-03-22T07:29:50.086Z,1009.56
2018-03-22T07:30:50.047Z,1009.67
2018-03-22T07:31:50.020Z,1009.53
2018-03-22T07:32:49.986Z,1009.48
2018-03-22T07:33:49.962Z,1009.59
2018-03-22T07:34:49.937Z,1009.53
2018-03-22T07:35:49.910Z,1009.48
2018-03-22T07:36:49.895Z,1009.49
2018-03-22T07:37:49.857Z,1009.45
2018-03-22T07:38:49.837Z,1009.49
2018-03-22T07:39:49.795Z,1009.41
2018-03-22T07:40:49.774Z,1009.45
2018-03-22T07:41:49.756Z,1009.47
2018-03-22T07:42:49.715Z,1009.39
2018-03-22T07:43:49.692Z,1009.40
2018-03-22T07:44:49.667Z,1009.52
2018-03-22T07:45:49.636Z,1009.35
2018-03-22T07:46:49.605Z,1009.42
2018-03-22T07:47:49.580Z,1009.34
2018-03-22T07:48:49.550Z,1009.35
2018-03-22T07:49:49.532Z,1009.46
2018-03-22T07:50:49.500Z,1009.51
2018-03-22T07:51:49.474Z,1009.33
2018-03-22T07:52:49.446Z,1009.27
2018-03-22T07:53:49.426Z,1009.36
2018-03-22T07:54:49.386Z,1009.30
2018-03-22T07:55:49.362Z,1009.25
2018-03-22T07:56:49.336Z,1009.24
2018-03-22T07:57:49.308Z,1009.30
2018-03-22T07:58:49.287Z,1009.34
2018-03-22T07:59:49.254Z,1009.22
2018-03-22T08:00:49.229Z,1009.28
2018-03-22T08:01:49.197Z,1009.44
2018-03-22T08:02:49.171Z,1009.28
2018-03-22T08:03:49.142Z,1009.24
2018-03-22T08:04:49.121Z,1009.17
2018-03-22T08:05:49.146Z,1009.16
2018-03-22T08:06:49.061Z,1009.14
2018-03-22T08:07:49.038Z,1009.12
2018-03-22T08:08:49.007Z,1009.08
2018-03-22T08:09:48.977Z,1009.13
2018-03-22T08:10:48.963Z,1009.13
2018-03-22T08:11:48.925Z,1009.16
2018-03-22T08:12:48.896Z,1009.09
2018-03-22T08:13:48.876Z,1009.22
2018-03-22T08:14:48.838Z,1009.13
2018-03-22T08:15:48.812Z,1009.20
2018-03-22T08:16:48.793Z,1009.10
2018-03-22T08:17:48.766Z,1009.17
2018-03-22T08:18:48.736Z,1009.07
2018-03-22T08:19:48.708Z,1009.14
2018-03-22T08:20:48.681Z,1009.12
2018-03-22T08:21:48.648Z,1009.11
2018-03-22T08:22:48.622Z,1009.05
2018-03-22T08:23:48.596Z,1009.13
2018-03-22T08:24:48.572Z,1009.15
2018-03-22T08:25:48.543Z,1009.12
2018-03-22T08:26:48.523Z,1008.99
2018-03-22T08:27:48.488Z,1009.05
2018-03-22T08:28:48.457Z,1009.06
2018-03-22T08:29:48.432Z,1009.07
2018-03-22T08:30:48.409Z,1009.02
2018-03-22T08:31:48.381Z,1009.03
2018-03-22T08:32:48.351Z,1009.02
2018-03-22T08:33:48.326Z,1009.00
2018-03-22T08:34:48.299Z,1008.99
2018-03-22T08:35:48.272Z,1008.90
2018-03-22T08:36:48.244Z,1008.95
2018-03-22T08:37:48.221Z,1008.89
2018-03-22T08:38:48.188Z,1009.16
2018-03-22T08:39:48.166Z,1008.81
2018-03-22T08:40:48.134Z,1008.83
2018-03-22T08:41:48.108Z,1008.89
2018-03-22T08:42:48.084Z,1008.85
2018-03-22T08:43:48.051Z,1008.95
2018-03-22T08:44:48.025Z,1008.93
2018-03-22T08:45:48.000Z,1008.95
2018-03-22T08:46:47.969Z,1008.92
2018-03-22T08:47:47.943Z,1008.97
2018-03-22T08:48:47.914Z,1008.99
2018-03-22T08:49:47.888Z,1008.84
2018-03-22T08:50:47.863Z,1008.89
2018-03-22T08:51:47.834Z,1008.83
2018-03-22T08:52:47.807Z,1008.86
2018-03-22T08:53:47.780Z,1008.93
2018-03-22T08:54:47.762Z,1008.84
2018-03-22T08:55:47.725Z,1008.92
2018-03-22T08:56:47.698Z,1008.83
2018-03-22T08:57:47.677Z,1008.85
2018-03-22T08:58:47.645Z,1008.87
2018-03-22T08:59:47.619Z,1008.86
2018-03-22T09:00:47.590Z,1008.89
2018-03-22T09:01:47.562Z,1008.90
2018-03-22T09:02:47.536Z,1008.91
2018-03-22T09:03:47.510Z,1008.93
2018-03-22T09:04:47.483Z,1008.90
2018-03-22T09:05:47.453Z,1008.92
2018-03-22T09:06:47.427Z,1008.89
2018-03-22T09:07:47.401Z,1008.92
2018-03-22T09:08:47.374Z,1008.88
2018-03-22T09:09:47.352Z,1008.86
2018-03-22T09:10:47.322Z,1008.84
2018-03-22T09:11:47.297Z,1008.87
2018-03-22T09:12:47.266Z,1008.90
2018-03-22T09:13:47.240Z,1008.84
2018-03-22T09:14:47.214Z,1008.84
2018-03-22T09:15:47.185Z,1008.79
2018-03-22T09:16:47.159Z,1008.78
2018-03-22T09:17:47.134Z,1008.78
2018-03-22T09:18:47.104Z,1008.92
2018-03-22T09:19:47.080Z,1008.81
2018-03-22T09:20:47.051Z,1008.70
2018-03-22T09:21:47.023Z,1008.75
2018-03-22T09:22:46.998Z,1008.80
2018-03-22T09:23:46.969Z,1008.78
2018-03-22T09:24:46.944Z,1008.76
2018-03-22T09:25:46.919Z,1008.74
2018-03-22T09:26:46.889Z,1008.73
2018-03-22T09:27:46.867Z,1008.68
2018-03-22T09:28:46.831Z,1008.71
2018-03-22T09:29:46.814Z,1008.71
2018-03-22T09:30:46.781Z,1008.72
2018-03-22T09:31:46.757Z,1008.80
2018-03-22T09:32:46.727Z,1008.77
2018-03-22T09:33:46.703Z,1008.81
2018-03-22T09:34:46.677Z,1008.74
2018-03-22T09:35:46.652Z,1008.71
2018-03-22T09:36:46.625Z,1008.66
2018-03-22T09:37:46.605Z,1008.75
2018-03-22T09:38:46.569Z,1008.70
2018-03-22T09:39:46.542Z,1008.70
2018-03-22T09:40:46.520Z,1008.69
2018-03-22T09:41:46.497Z,1008.68
2018-03-22T09:42:46.465Z,1008.64
2018-03-22T09:43:46.440Z,1008.61
2018-03-22T09:44:46.413Z,1008.61
2018-03-22T09:45:46.385Z,1008.62
2018-03-22T09:46:46.361Z,1008.62
2018-03-22T09:47:46.331Z,1008.74
2018-03-22T09:48:46.328Z,1008.69
2018-03-22T09:49:46.280Z,1008.62
2018-03-22T09:50:46.259Z,1008.69
2018-03-22T09:51:46.228Z,1008.66
2018-03-22T09:52:46.202Z,1008.65
2018-03-22T09:53:46.231Z,1008.67
2018-03-22T09:54:46.151Z,1008.64
2018-03-22T09:55:46.127Z,1008.57
2018-03-22T09:56:46.098Z,1008.53
2018-03-22T09:57:46.074Z,1008.58
2018-03-22T09:58:46.042Z,1008.60
2018-03-22T09:59:46.020Z,1008.60
2018-03-22T10:00:45.990Z,1008.61
2018-03-22T10:01:45.967Z,1008.61
2018-03-22T10:02:45.943Z,1008.52
2018-03-22T10:03:45.913Z,1008.60
2018-03-22T10:04:45.888Z,1008.60
2018-03-22T10:05:45.867Z,1008.58
2018-03-22T10:06:45.836Z,1008.60
2018-03-22T10:07:45.811Z,1008.58
2018-03-22T10:08:45.792Z,1008.60
2018-03-22T10:09:45.760Z,1008.60
2018-03-22T10:10:45.739Z,1008.53
2018-03-22T10:11:45.711Z,1008.55
2018-03-22T10:12:45.683Z,1008.57
2018-03-22T10:13:45.657Z,1008.55
2018-03-22T10:14:45.634Z,1008.54
2018-03-22T10:15:45.610Z,1008.55
2018-03-22T10:16:45.576Z,1008.57
2018-03-22T10:17:45.556Z,1008.50
2018-03-22T10:18:45.532Z,1008.54
2018-03-22T10:19:45.507Z,1008.60
2018-03-22T10:20:45.479Z,1008.57
2018-03-22T10:21:45.505Z,1008.56
2018-03-22T10:22:45.432Z,1008.56
2018-03-22T10:23:45.403Z,1008.56
2018-03-22T10:24:45.381Z,1008.54
2018-03-22T10:25:45.351Z,1008.52
2018-03-22T10:26:45.326Z,1008.51
2018-03-22T10:27:45.298Z,1008.54
2018-03-22T10:28:45.271Z,1008.51
2018-03-22T10:29:45.246Z,1008.48
2018-03-22T10:30:45.225Z,1008.48
2018-03-22T10:31:45.197Z,1008.53
2018-03-22T10:32:45.174Z,1008.48
2018-03-22T10:33:45.147Z,1008.54
2018-03-22T10:34:45.125Z,1008.49
2018-03-22T10:35:45.095Z,1008.49
2018-03-22T10:36:45.075Z,1008.46
2018-03-22T10:37:45.060Z,1008.41
2018-03-22T10:38:45.024Z,1008.47
2018-03-22T10:39:44.999Z,1008.43
2018-03-22T10:40:44.973Z,1008.41
2018-03-22T10:41:44.950Z,1008.46
2018-03-22T10:42:44.920Z,1008.42
2018-03-22T10:43:44.906Z,1008.45
2018-03-22T10:44:44.873Z,1008.48
2018-03-22T10:45:44.845Z,1008.44
2018-03-22T10:46:44.824Z,1008.45
2018-03-22T10:47:44.801Z,1008.43
2018-03-22T10:48:44.774Z,1008.39
2018-03-22T10:49:44.750Z,1008.36
2018-03-22T10:50:44.727Z,1008.41
2018-03-22T10:51:44.701Z,1008.35
2018-03-22T10:52:44.680Z,1008.40
2018-03-22T10:53:44.659Z,1008.32
2018-03-22T10:54:44.629Z,1008.34
2018-03-22T10:55:44.610Z,1008.33
2018-03-22T10:56:44.582Z,1008.32
2018-03-22T10:57:44.558Z,1008.26
2018-03-22T10:58:44.532Z,1008.28
2018-03-22T10:59:44.510Z,1008.26
2018-03-22T11:00:44.481Z,1008.37
2018-03-22T11:01:44.464Z,1008.26
2018-03-22T11:02:44.436Z,1008.31
2018-03-22T11:03:44.412Z,1008.30
2018-03-22T11:04:44.388Z,1008.34
2018-03-22T11:05:44.364Z,1008.28
2018-03-22T11:06:44.342Z,1008.27
2018-03-22T11:07:44.319Z,1008.23
2018-03-22T11:08:44.293Z,1008.23
2018-03-22T11:09:44.273Z,1008.22
2018-03-22T11:10:44.246Z,1008.16
2018-03-22T11:11:44.230Z,1008.13
2018-03-22T11:12:44.197Z,1008.15
2018-03-22T11:13:44.172Z,1008.13
2018-03-22T11:14:44.153Z,1008.12
2018-03-22T11:15:44.125Z,1008.19
2018-03-22T11:16:44.106Z,1008.15
2018-03-22T11:17:44.079Z,1008.15
2018-03-22T11:18:44.052Z,1008.13
2018-03-22T11:19:44.073Z,1008.10
2018-03-22T11:20:44.010Z,1008.13
2018-03-22T11:21:43.986Z,1008.14
2018-03-22T11:22:43.962Z,1008.19
2018-03-22T11:23:43.939Z,1008.17
2018-03-22T11:24:43.917Z,1008.26
2018-03-22T11:25:43.892Z,1008.26
2018-03-22T11:26:43.868Z,1008.15
2018-03-22T11:27:43.849Z,1008.13
2018-03-22T11:28:43.826Z,1008.19
2018-03-22T11:29:43.802Z,1008.11
2018-03-22T11:30:43.775Z,1008.06
2018-03-22T11:31:43.757Z,1008.05
2018-03-22T11:32:43.737Z,1008.11
2018-03-22T11:33:43.710Z,1008.09
2018-03-22T11:34:43.692Z,1008.10
2018-03-22T11:35:43.676Z,1008.13
2018-03-22T11:36:43.646Z,1008.12
2018-03-22T11:37:43.620Z,1008.03
2018-03-22T11:38:43.600Z,1007.99
2018-03-22T11:39:43.573Z,1007.95
2018-03-22T11:40:43.560Z,1007.97
2018-03-22T11:41:43.537Z,1007.94
2018-03-22T11:42:43.516Z,1007.91
2018-03-22T11:43:43.487Z,1007.89
2018-03-22T11:44:43.464Z,1007.88
2018-03-22T11:45:43.440Z,1007.88
2018-03-22T11:46:43.414Z,1007.87
2018-03-22T11:47:43.396Z,1007.94
2018-03-22T11:48:43.375Z,1007.88
2018-03-22T11:49:43.355Z,1007.89
2018-03-22T11:50:43.326Z,1007.89
2018-03-22T11:51:43.306Z,1007.89
2018-03-22T11:52:43.283Z,1007.89
2018-03-22T11:53:43.276Z,1007.81
2018-03-22T11:54:43.236Z,1007.90
2018-03-22T11:55:43.219Z,1007.85
2018-03-22T11:56:43.199Z,1007.83
2018-03-22T11:57:43.166Z,1007.90
2018-03-22T11:58:43.142Z,1007.83
2018-03-22T11:59:43.120Z,1007.82
2018-03-22T12:00:43.096Z,1007.78
2018-03-22T12:01:43.073Z,1007.82
2018-03-22T12:02:43.050Z,1007.84
2018-03-22T12:03:43.027Z,1007.83
2018-03-22T12:04:43.021Z,1007.76